Time;durP1;ratioP1;P1;durP2;ratioP2;P2;SDS_P1;SDS_P2;PMS_P1;PMS_P2;Temp;Humidity;BMP_temperature;BMP_pressure;BME280_temperature;BME280_humidity;BME280_pressure;Samples;Min_cycle;Max_cycle;Signal;HPM_P1;HPM_P2
2021/07/17 00:00:26;;;;;;;18.08;13.95;;;;;;;;;;3583510;40;20449;-63
2021/07/17 00:02:52;;;;;;;18.35;14.23;;;;;;;;;;3583213;40;20080;-63
2021/07/17 00:05:18;;;;;;;14.77;13.25;;;;;;;;;;3582496;40;20062;-63
2021/07/17 00:07:47;;;;;;;15.88;13.73;;;;;;;;;;3580599;40;20039;-63
2021/07/17 00:10:23;;;;;;;17.52;13.85;;;;;;;;;;3574015;40;20031;-63
2021/07/17 00:12:49;;;;;;;22.38;13.95;;;;;;;;;;3583361;40;20150;-63
2021/07/17 00:15:18;;;;;;;16.55;14.40;;;;;;;;;;3583438;40;20037;-63
2021/07/17 00:17:45;;;;;;;19.50;14.32;;;;;;;;;;3583767;40;20033;-63
2021/07/17 00:20:12;;;;;;;24.35;14.10;;;;;;;;;;3584576;40;20282;-63
2021/07/17 00:22:38;;;;;;;17.63;13.93;;;;;;;;;;3582847;40;20060;-63
2021/07/17 00:25:06;;;;;;;15.25;13.55;;;;;;;;;;3583396;40;20057;-64
2021/07/17 00:27:32;;;;;;;18.73;14.18;;;;;;;;;;3583513;40;20057;-64
2021/07/17 00:29:57;;;;;;;16.50;14.38;;;;;;;;;;3581411;40;20055;-63
2021/07/17 00:32:22;;;;;;;21.80;14.43;;;;;;;;;;3583365;40;20367;-63
2021/07/17 00:34:48;;;;;;;16.95;15.18;;;;;;;;;;3583743;40;20053;-63
2021/07/17 00:37:13;;;;;;;15.75;14.10;;;;;;;;;;3582013;40;20048;-63
2021/07/17 00:39:39;;;;;;;17.35;14.32;;;;;;;;;;3582397;40;20051;-63
2021/07/17 00:42:04;;;;;;;21.13;14.45;;;;;;;;;;3583076;40;20403;-63
2021/07/17 00:44:30;;;;;;;19.50;14.15;;;;;;;;;;3583839;40;20052;-63
2021/07/17 00:46:56;;;;;;;17.52;14.55;;;;;;;;;;3582077;40;20032;-63
2021/07/17 00:49:27;;;;;;;19.48;14.63;;;;;;;;;;3582752;40;20037;-63
2021/07/17 00:51:52;;;;;;;;;;;;;;;;;;3583104;40;20345;-63
2021/07/17 00:54:19;;;;;;;19.25;13.90;;;;;;;;;;3582317;40;19948;-63
2021/07/17 00:56:46;;;;;;;17.60;14.77;;;;;;;;;;3581102;40;20395;-63
2021/07/17 00:59:13;;;;;;;20.92;14.98;;;;;;;;;;3584571;40;20090;-63
2021/07/17 01:01:40;;;;;;;19.10;14.88;;;;;;;;;;3582037;40;20035;-63
2021/07/17 01:04:06;;;;;;;17.30;14.77;;;;;;;;;;3582807;40;20149;-63
2021/07/17 01:06:31;;;;;;;20.20;13.90;;;;;;;;;;3576479;40;20887;-63
2021/07/17 01:08:57;;;;;;;19.38;14.93;;;;;;;;;;3582784;40;20032;-63
2021/07/17 01:11:22;;;;;;;21.17;13.93;;;;;;;;;;3583397;40;20025;-63
2021/07/17 01:13:48;;;;;;;17.92;14.25;;;;;;;;;;3582819;40;20446;-63
2021/07/17 01:16:13;;;;;;;17.35;14.38;;;;;;;;;;3581328;40;20554;-63
2021/07/17 01:18:39;;;;;;;22.50;14.35;;;;;;;;;;3583478;40;20059;-63
2021/07/17 01:21:06;;;;;;;21.80;14.65;;;;;;;;;;3582042;40;20041;-63
2021/07/17 01:23:31;;;;;;;19.42;14.65;;;;;;;;;;3580862;40;20032;-63
2021/07/17 01:25:57;;;;;;;21.77;15.40;;;;;;;;;;3581825;40;20037;-63
2021/07/17 01:28:22;;;;;;;17.27;14.35;;;;;;;;;;3582320;40;20488;-63
2021/07/17 01:30:48;;;;;;;19.55;16.30;;;;;;;;;;3582994;40;20043;-63
2021/07/17 01:33:13;;;;;;;18.95;14.80;;;;;;;;;;3582487;40;20040;-63
2021/07/17 01:35:39;;;;;;;21.25;14.82;;;;;;;;;;3580534;40;20025;-64
2021/07/17 01:38:05;;;;;;;20.73;14.05;;;;;;;;;;3584109;40;20093;-64
2021/07/17 01:40:31;;;;;;;19.33;15.18;;;;;;;;;;3583730;40;20033;-64
2021/07/17 01:42:59;;;;;;;17.17;14.32;;;;;;;;;;3576319;40;20040;-63
2021/07/17 01:45:39;;;;;;;22.20;14.55;;;;;;;;;;3581733;40;20040;-63
2021/07/17 01:48:06;;;;;;;22.05;14.02;;;;;;;;;;3583193;40;20047;-63
2021/07/17 01:50:32;;;;;;;21.17;15.00;;;;;;;;;;3582711;40;20040;-63
2021/07/17 01:52:59;;;;;;;18.45;14.13;;;;;;;;;;3583316;40;20056;-63
2021/07/17 01:55:25;;;;;;;20.40;14.35;;;;;;;;;;3582168;40;20029;-63
2021/07/17 01:57:50;;;;;;;19.42;14.05;;;;;;;;;;3582090;40;20029;-63
2021/07/17 02:00:17;;;;;;;17.88;14.88;;;;;;;;;;3582583;40;20048;-63
2021/07/17 02:02:44;;;;;;;28.73;13.93;;;;;;;;;;3582848;40;20311;-63
2021/07/17 02:05:10;;;;;;;23.08;14.45;;;;;;;;;;3582437;40;20355;-64
2021/07/17 02:07:36;;;;;;;17.45;14.35;;;;;;;;;;3582004;40;20569;-63
2021/07/17 02:10:10;;;;;;;29.48;14.65;;;;;;;;;;3583102;40;20032;-63
2021/07/17 02:12:38;;;;;;;17.70;14.40;;;;;;;;;;3582667;40;20048;-63
2021/07/17 02:15:05;;;;;;;23.23;14.32;;;;;;;;;;3583268;40;20054;-63
2021/07/17 02:17:31;;;;;;;16.38;13.85;;;;;;;;;;3578189;40;20278;-63
2021/07/17 02:19:56;;;;;;;17.30;13.27;;;;;;;;;;3582052;40;20103;-63
2021/07/17 02:22:22;;;;;;;24.02;14.20;;;;;;;;;;3583990;40;20049;-63
2021/07/17 02:24:47;;;;;;;18.02;15.15;;;;;;;;;;3583575;40;20036;-63
2021/07/17 02:27:13;;;;;;;15.82;13.60;;;;;;;;;;3583802;40;20029;-63
2021/07/17 02:29:38;;;;;;;17.05;13.45;;;;;;;;;;3581813;40;20041;-63
2021/07/17 02:32:03;;;;;;;20.00;14.00;;;;;;;;;;3581712;40;20025;-63
2021/07/17 02:34:29;;;;;;;23.45;14.95;;;;;;;;;;3583181;40;20256;-63
2021/07/17 02:36:54;;;;;;;19.75;14.50;;;;;;;;;;3584759;40;20049;-63
2021/07/17 02:39:20;;;;;;;21.13;12.90;;;;;;;;;;3584002;40;20032;-63
2021/07/17 02:41:45;;;;;;;22.30;13.70;;;;;;;;;;3582114;40;20315;-63
2021/07/17 02:44:11;;;;;;;17.63;13.52;;;;;;;;;;3584798;40;20495;-63
2021/07/17 02:46:36;;;;;;;21.60;13.93;;;;;;;;;;3584586;40;20043;-63
2021/07/17 02:49:02;;;;;;;18.02;13.38;;;;;;;;;;3583691;40;20269;-63
2021/07/17 02:51:27;;;;;;;23.90;13.90;;;;;;;;;;3581004;40;20038;-63
2021/07/17 02:53:53;;;;;;;16.73;12.82;;;;;;;;;;3583489;40;20048;-62
2021/07/17 02:56:18;;;;;;;15.90;12.60;;;;;;;;;;3584509;40;20527;-62
2021/07/17 02:58:44;;;;;;;16.83;12.32;;;;;;;;;;3583267;40;20044;-62
2021/07/17 03:01:09;;;;;;;16.42;12.45;;;;;;;;;;3583247;40;20044;-62
2021/07/17 03:03:35;;;;;;;15.52;13.00;;;;;;;;;;3582780;40;20040;-62
2021/07/17 03:06:00;;;;;;;13.90;12.38;;;;;;;;;;3584337;40;20052;-62
2021/07/17 03:08:25;;;;;;;18.15;12.40;;;;;;;;;;3585345;40;20043;-62
2021/07/17 03:10:52;;;;;;;16.40;12.02;;;;;;;;;;3584586;40;20100;-63
2021/07/17 03:13:18;;;;;;;16.58;11.52;;;;;;;;;;3582562;40;20048;-62
2021/07/17 03:15:46;;;;;;;12.93;11.15;;;;;;;;;;3583182;40;20032;-62
2021/07/17 03:18:11;;;;;;;20.40;12.88;;;;;;;;;;3584036;40;20063;-63
2021/07/17 03:20:37;;;;;;;22.27;11.25;;;;;;;;;;3583765;40;20488;-62
2021/07/17 03:23:03;;;;;;;14.73;11.15;;;;;;;;;;3582950;40;20060;-63
2021/07/17 03:25:29;;;;;;;16.85;10.93;;;;;;;;;;3581991;40;20106;-63
2021/07/17 03:27:54;;;;;;;13.32;10.35;;;;;;;;;;3583422;40;20033;-62
2021/07/17 03:30:20;;;;;;;13.07;10.80;;;;;;;;;;3585430;40;20034;-63
2021/07/17 03:32:45;;;;;;;14.10;10.85;;;;;;;;;;3583353;40;20044;-63
2021/07/17 03:35:11;;;;;;;14.05;10.88;;;;;;;;;;3583793;40;20411;-62
2021/07/17 03:37:36;;;;;;;19.05;10.88;;;;;;;;;;3583301;40;20114;-62
2021/07/17 03:40:04;;;;;;;12.98;11.23;;;;;;;;;;3583239;40;20033;-62
2021/07/17 03:42:29;;;;;;;13.50;10.15;;;;;;;;;;3582501;40;20044;-62
2021/07/17 03:44:55;;;;;;;18.85;11.05;;;;;;;;;;3584033;40;20364;-62
2021/07/17 03:47:20;;;;;;;17.63;10.23;;;;;;;;;;3582721;40;20041;-62
2021/07/17 03:49:46;;;;;;;15.38;10.75;;;;;;;;;;3583255;40;20029;-62
2021/07/17 03:52:11;;;;;;;19.27;10.38;;;;;;;;;;3583490;40;20045;-62
2021/07/17 03:54:37;;;;;;;12.98;10.13;;;;;;;;;;3583047;40;20036;-62
2021/07/17 03:57:03;;;;;;;11.18;9.88;;;;;;;;;;3582288;40;20053;-62
2021/07/17 03:59:28;;;;;;;15.05;10.75;;;;;;;;;;3584258;40;20033;-62
2021/07/17 04:01:53;;;;;;;13.55;10.23;;;;;;;;;;3584447;40;20267;-62
2021/07/17 04:04:19;;;;;;;13.15;9.90;;;;;;;;;;3583543;40;20261;-62
2021/07/17 04:06:45;;;;;;;13.15;10.52;;;;;;;;;;3584072;40;20145;-62
2021/07/17 04:09:10;;;;;;;12.30;10.45;;;;;;;;;;3581994;40;20040;-63
2021/07/17 04:11:36;;;;;;;12.70;10.35;;;;;;;;;;3582664;40;20041;-63
2021/07/17 04:14:02;;;;;;;16.23;10.75;;;;;;;;;;3581148;40;20047;-63
2021/07/17 04:16:27;;;;;;;15.65;10.23;;;;;;;;;;3576264;40;20129;-63
2021/07/17 04:18:53;;;;;;;13.73;11.10;;;;;;;;;;3582116;40;20134;-63
2021/07/17 04:21:18;;;;;;;11.27;9.75;;;;;;;;;;3582741;40;20037;-63
2021/07/17 04:23:44;;;;;;;15.68;10.95;;;;;;;;;;3573942;40;20044;-63
2021/07/17 04:26:09;;;;;;;16.58;10.88;;;;;;;;;;3583670;40;20041;-63
2021/07/17 04:28:35;;;;;;;14.73;11.00;;;;;;;;;;3580266;40;20048;-63
2021/07/17 04:31:01;;;;;;;13.70;10.43;;;;;;;;;;3581613;40;20044;-63
2021/07/17 04:33:27;;;;;;;14.00;10.80;;;;;;;;;;3583413;40;20652;-63
2021/07/17 04:35:52;;;;;;;11.32;10.23;;;;;;;;;;3583912;40;20051;-63
2021/07/17 04:38:18;;;;;;;12.75;9.95;;;;;;;;;;3584651;40;20033;-63
2021/07/17 04:40:44;;;;;;;12.25;10.30;;;;;;;;;;3581421;40;20335;-63
2021/07/17 04:43:09;;;;;;;16.92;10.68;;;;;;;;;;3582712;40;20416;-63
2021/07/17 04:45:35;;;;;;;16.65;10.57;;;;;;;;;;3582697;40;20053;-63
2021/07/17 04:48:04;;;;;;;13.50;10.43;;;;;;;;;;3583602;40;20379;-63
2021/07/17 04:50:33;;;;;;;16.02;11.05;;;;;;;;;;3576076;40;20047;-63
2021/07/17 04:52:59;;;;;;;11.90;10.00;;;;;;;;;;3582666;40;20028;-63
2021/07/17 04:55:25;;;;;;;14.07;10.60;;;;;;;;;;3583931;40;20272;-63
2021/07/17 04:57:51;;;;;;;15.63;10.60;;;;;;;;;;3584781;40;20956;-63
2021/07/17 05:00:17;;;;;;;12.05;9.68;;;;;;;;;;3583991;40;20037;-63
2021/07/17 05:02:50;;;;;;;17.27;10.45;;;;;;;;;;3581909;40;20382;-63
2021/07/17 05:05:17;;;;;;;15.13;9.68;;;;;;;;;;3582082;40;20135;-62
2021/07/17 05:07:46;;;;;;;14.68;9.98;;;;;;;;;;3581462;40;20039;-62
2021/07/17 05:10:14;;;;;;;14.13;10.43;;;;;;;;;;3582599;40;20057;-62
2021/07/17 05:12:39;;;;;;;16.52;10.77;;;;;;;;;;3583914;40;20037;-62
2021/07/17 05:15:07;;;;;;;14.30;9.95;;;;;;;;;;3574943;40;20041;-62
2021/07/17 05:17:33;;;;;;;20.73;10.15;;;;;;;;;;3573593;40;20118;-62
2021/07/17 05:19:58;;;;;;;18.55;10.90;;;;;;;;;;3582380;40;20044;-63
2021/07/17 05:22:24;;;;;;;16.75;9.57;;;;;;;;;;3582253;40;20033;-62
2021/07/17 05:24:49;;;;;;;13.68;9.07;;;;;;;;;;3580730;40;20029;-62
2021/07/17 05:27:15;;;;;;;15.55;10.15;;;;;;;;;;3583760;40;20135;-62
2021/07/17 05:29:40;;;;;;;13.45;9.88;;;;;;;;;;3583389;40;20049;-63
2021/07/17 05:32:06;;;;;;;12.50;9.77;;;;;;;;;;3583567;40;20080;-62
2021/07/17 05:34:31;;;;;;;12.80;9.90;;;;;;;;;;3581643;40;20306;-62
2021/07/17 05:36:57;;;;;;;16.67;9.38;;;;;;;;;;3583069;40;20115;-62
2021/07/17 05:39:22;;;;;;;13.90;9.57;;;;;;;;;;3582970;40;20043;-62
2021/07/17 05:41:48;;;;;;;15.00;9.70;;;;;;;;;;3582795;40;20039;-63
2021/07/17 05:44:13;;;;;;;13.05;9.85;;;;;;;;;;3583211;40;20036;-62
2021/07/17 05:46:39;;;;;;;13.10;10.32;;;;;;;;;;3581665;40;20146;-62
2021/07/17 05:49:04;;;;;;;13.50;9.43;;;;;;;;;;3583090;40;20037;-62
2021/07/17 05:51:29;;;;;;;14.35;9.32;;;;;;;;;;3583294;40;20352;-62
2021/07/17 05:53:55;;;;;;;14.50;9.88;;;;;;;;;;3582004;40;20044;-62
2021/07/17 05:56:20;;;;;;;14.07;10.15;;;;;;;;;;3582588;40;20128;-62
2021/07/17 05:58:46;;;;;;;15.60;10.38;;;;;;;;;;3580662;40;20044;-62
2021/07/17 06:01:11;;;;;;;14.23;9.88;;;;;;;;;;3582004;40;21000;-63
2021/07/17 06:03:37;;;;;;;13.35;9.55;;;;;;;;;;3582679;40;20045;-62
2021/07/17 06:06:02;;;;;;;13.00;9.75;;;;;;;;;;3582036;40;20292;-62
2021/07/17 06:08:27;;;;;;;18.17;9.48;;;;;;;;;;3582544;40;20051;-62
2021/07/17 06:10:53;;;;;;;13.23;9.60;;;;;;;;;;3581295;40;20041;-62
2021/07/17 06:13:18;;;;;;;17.58;9.02;;;;;;;;;;3583313;40;20041;-62
2021/07/17 06:15:44;;;;;;;17.02;9.73;;;;;;;;;;3582447;40;20044;-63
2021/07/17 06:18:09;;;;;;;13.57;9.73;;;;;;;;;;3581797;40;20076;-62
2021/07/17 06:20:35;;;;;;;10.93;8.68;;;;;;;;;;3582443;40;20041;-62
2021/07/17 06:23:00;;;;;;;11.90;8.60;;;;;;;;;;3582901;40;20029;-63
2021/07/17 06:25:26;;;;;;;11.57;9.40;;;;;;;;;;3581281;40;20130;-63
2021/07/17 06:27:51;;;;;;;13.30;9.30;;;;;;;;;;3583193;40;20033;-63
2021/07/17 06:30:17;;;;;;;12.77;8.88;;;;;;;;;;3582126;40;20482;-63
2021/07/17 06:32:43;;;;;;;9.80;7.93;;;;;;;;;;3582603;40;20046;-63
2021/07/17 06:35:08;;;;;;;12.20;8.52;;;;;;;;;;3582250;40;20037;-63
2021/07/17 06:37:40;;;;;;;13.75;8.52;;;;;;;;;;3581051;40;20045;-63
2021/07/17 06:40:07;;;;;;;17.38;8.60;;;;;;;;;;3582604;40;20126;-63
2021/07/17 06:42:38;;;;;;;16.65;7.53;;;;;;;;;;3579273;40;20131;-63
2021/07/17 06:45:04;;;;;;;11.63;8.45;;;;;;;;;;3582935;40;20096;-63
2021/07/17 06:47:30;;;;;;;13.35;7.90;;;;;;;;;;3583035;40;20044;-63
2021/07/17 06:49:55;;;;;;;11.15;8.35;;;;;;;;;;3582518;40;20045;-64
2021/07/17 06:52:21;;;;;;;9.52;7.22;;;;;;;;;;3581800;40;20077;-64
2021/07/17 06:54:46;;;;;;;12.02;7.72;;;;;;;;;;3582072;40;20033;-63
2021/07/17 06:57:12;;;;;;;15.93;8.07;;;;;;;;;;3582715;40;20032;-63
2021/07/17 06:59:37;;;;;;;13.13;7.15;;;;;;;;;;3583425;40;20133;-63
2021/07/17 07:02:03;;;;;;;11.77;7.28;;;;;;;;;;3583691;40;20039;-63
2021/07/17 07:04:28;;;;;;;10.10;7.65;;;;;;;;;;3583225;40;20048;-63
2021/07/17 07:06:54;;;;;;;12.57;8.18;;;;;;;;;;3584077;40;20036;-63
2021/07/17 07:09:19;;;;;;;13.32;7.90;;;;;;;;;;3584278;40;20045;-63
2021/07/17 07:11:44;;;;;;;12.43;6.93;;;;;;;;;;3581625;40;20040;-62
2021/07/17 07:14:10;;;;;;;8.82;7.18;;;;;;;;;;3573953;40;20047;-62
2021/07/17 07:16:35;;;;;;;9.65;6.90;;;;;;;;;;3582508;40;20036;-62
2021/07/17 07:19:01;;;;;;;15.68;7.78;;;;;;;;;;3581123;40;20041;-62
2021/07/17 07:21:26;;;;;;;12.20;7.30;;;;;;;;;;3572677;40;20380;-62
2021/07/17 07:23:52;;;;;;;10.82;7.35;;;;;;;;;;3583357;40;20056;-62
2021/07/17 07:26:17;;;;;;;13.27;7.38;;;;;;;;;;3582456;40;20049;-62
2021/07/17 07:28:43;;;;;;;9.15;6.95;;;;;;;;;;3585389;40;20304;-63
2021/07/17 07:31:08;;;;;;;12.00;7.78;;;;;;;;;;3583230;40;20099;-62
2021/07/17 07:33:34;;;;;;;11.15;7.78;;;;;;;;;;3584891;40;20040;-62
2021/07/17 07:35:59;;;;;;;20.55;8.13;;;;;;;;;;3580134;40;20033;-62
2021/07/17 07:38:24;;;;;;;9.88;6.60;;;;;;;;;;3584600;40;20040;-62
2021/07/17 07:40:50;;;;;;;9.48;7.00;;;;;;;;;;3581790;40;20051;-62
2021/07/17 07:43:15;;;;;;;11.80;8.05;;;;;;;;;;3583161;40;20048;-62
2021/07/17 07:45:41;;;;;;;10.57;6.47;;;;;;;;;;3582207;40;20056;-62
2021/07/17 07:48:06;;;;;;;9.73;6.95;;;;;;;;;;3581471;40;20021;-62
2021/07/17 07:50:32;;;;;;;9.35;6.95;;;;;;;;;;3583179;40;20352;-61
2021/07/17 07:52:59;;;;;;;14.68;7.63;;;;;;;;;;3583123;40;20045;-62
2021/07/17 07:55:24;;;;;;;9.85;6.30;;;;;;;;;;3582033;40;20132;-61
2021/07/17 07:57:50;;;;;;;7.32;6.43;;;;;;;;;;3582264;40;20028;-62
2021/07/17 08:00:16;;;;;;;9.00;6.15;;;;;;;;;;3582724;40;20383;-62
2021/07/17 08:02:42;;;;;;;9.85;6.65;;;;;;;;;;3584636;40;20048;-62
2021/07/17 08:05:09;;;;;;;8.65;6.32;;;;;;;;;;3584133;40;20253;-62
2021/07/17 08:07:34;;;;;;;8.93;6.32;;;;;;;;;;3574978;40;20071;-62
2021/07/17 08:09:59;;;;;;;11.73;6.57;;;;;;;;;;3583238;40;20392;-62
2021/07/17 08:12:25;;;;;;;7.50;5.53;;;;;;;;;;3583839;40;20383;-62
2021/07/17 08:14:50;;;;;;;10.48;6.10;;;;;;;;;;3584677;40;20370;-61
2021/07/17 08:17:16;;;;;;;11.10;6.57;;;;;;;;;;3583434;40;20028;-61
2021/07/17 08:19:41;;;;;;;10.23;6.15;;;;;;;;;;3581314;40;20048;-62
2021/07/17 08:22:07;;;;;;;7.93;5.55;;;;;;;;;;3581972;40;20069;-61
2021/07/17 08:24:32;;;;;;;10.13;6.53;;;;;;;;;;3583399;40;20542;-61
2021/07/17 08:26:58;;;;;;;9.77;6.05;;;;;;;;;;3583390;40;20052;-62
2021/07/17 08:29:23;;;;;;;11.57;6.22;;;;;;;;;;3584006;40;20048;-62
2021/07/17 08:31:49;;;;;;;12.38;6.45;;;;;;;;;;3584352;40;20076;-61
2021/07/17 08:34:14;;;;;;;10.63;6.70;;;;;;;;;;3577502;40;20041;-62
2021/07/17 08:36:40;;;;;;;10.27;6.38;;;;;;;;;;3584550;40;20036;-62
2021/07/17 08:39:05;;;;;;;8.90;6.38;;;;;;;;;;3584062;40;20044;-62
2021/07/17 08:41:34;;;;;;;10.18;6.47;;;;;;;;;;3582534;40;20057;-62
2021/07/17 08:44:00;;;;;;;11.80;6.95;;;;;;;;;;3582937;40;20029;-62
2021/07/17 08:46:26;;;;;;;11.27;6.80;;;;;;;;;;3582009;40;20513;-63
2021/07/17 08:48:54;;;;;;;14.05;6.63;;;;;;;;;;3582852;40;20052;-62
2021/07/17 08:51:20;;;;;;;7.97;4.93;;;;;;;;;;3583522;40;20079;-62
2021/07/17 08:53:47;;;;;;;8.63;5.45;;;;;;;;;;3583098;40;20429;-62
2021/07/17 08:56:13;;;;;;;10.18;5.53;;;;;;;;;;3582214;40;20387;-62
2021/07/17 08:58:39;;;;;;;8.90;6.10;;;;;;;;;;3582475;40;20040;-62
2021/07/17 09:01:04;;;;;;;35.85;10.25;;;;;;;;;;3581681;40;20048;-62
2021/07/17 09:03:30;;;;;;;16.33;7.78;;;;;;;;;;3581936;40;20059;-62
2021/07/17 09:05:56;;;;;;;14.55;7.15;;;;;;;;;;3582960;40;20041;-62
2021/07/17 09:08:22;;;;;;;10.18;6.65;;;;;;;;;;3582768;40;20029;-62
2021/07/17 09:10:52;;;;;;;9.40;6.45;;;;;;;;;;3583924;40;20372;-62
2021/07/17 09:13:32;;;;;;;13.88;6.40;;;;;;;;;;3582108;40;20125;-63
2021/07/17 09:16:06;;;;;;;15.18;6.70;;;;;;;;;;3581686;40;20142;-62
2021/07/17 09:18:36;;;;;;;7.85;5.88;;;;;;;;;;3582407;40;20142;-62
2021/07/17 09:21:28;;;;;;;9.65;6.28;;;;;;;;;;3579860;40;20044;-59
2021/07/17 09:24:00;;;;;;;10.18;7.15;;;;;;;;;;3577368;40;20033;-60
2021/07/17 09:26:31;;;;;;;8.55;6.05;;;;;;;;;;3581210;40;20109;-58
2021/07/17 09:29:00;;;;;;;9.70;6.10;;;;;;;;;;3581878;40;20041;-58
2021/07/17 09:31:31;;;;;;;8.97;7.23;;;;;;;;;;3582147;40;20117;-58
2021/07/17 09:34:04;;;;;;;11.18;7.15;;;;;;;;;;3582546;40;20039;-59
2021/07/17 09:36:29;;;;;;;10.60;6.53;;;;;;;;;;3576327;40;20033;-59
2021/07/17 09:38:54;;;;;;;16.65;11.43;;;;;;;;;;3584517;40;20130;-59
2021/07/17 09:41:22;;;;;;;18.10;6.80;;;;;;;;;;3583601;40;20045;-59
2021/07/17 09:44:01;;;;;;;10.45;7.00;;;;;;;;;;3582128;40;20045;-59
2021/07/17 09:46:28;;;;;;;9.15;6.65;;;;;;;;;;3580730;40;20037;-59
2021/07/17 09:49:03;;;;;;;9.82;6.65;;;;;;;;;;3580591;40;20044;-59
2021/07/17 09:51:34;;;;;;;9.68;7.00;;;;;;;;;;3581485;40;20575;-59
2021/07/17 09:54:02;;;;;;;9.95;6.95;;;;;;;;;;3580877;40;20631;-59
2021/07/17 09:56:31;;;;;;;9.65;6.38;;;;;;;;;;3582216;40;20049;-59
2021/07/17 09:58:59;;;;;;;19.15;7.68;;;;;;;;;;3581975;40;20054;-59
2021/07/17 10:01:30;;;;;;;9.48;7.25;;;;;;;;;;3583112;40;20048;-60
2021/07/17 10:04:02;;;;;;;8.98;7.03;;;;;;;;;;3583173;40;20052;-60
2021/07/17 10:06:30;;;;;;;16.00;6.90;;;;;;;;;;3582210;40;20040;-61
2021/07/17 10:08:56;;;;;;;9.82;7.63;;;;;;;;;;3582649;40;20041;-61
2021/07/17 10:11:23;;;;;;;10.63;7.22;;;;;;;;;;3581795;40;20088;-61
2021/07/17 10:13:48;;;;;;;9.70;7.53;;;;;;;;;;3582150;40;20060;-62
2021/07/17 10:16:27;;;;;;;11.00;7.57;;;;;;;;;;3583745;40;20045;-60
2021/07/17 10:18:56;;;;;;;13.80;7.93;;;;;;;;;;3584718;40;20033;-61
2021/07/17 10:21:23;;;;;;;8.52;6.72;;;;;;;;;;3582248;40;20032;-59
2021/07/17 10:23:49;;;;;;;9.10;8.20;;;;;;;;;;3582149;40;20053;-60
2021/07/17 10:26:15;;;;;;;13.13;7.68;;;;;;;;;;3583767;40;20142;-59
2021/07/17 10:28:41;;;;;;;11.48;8.35;;;;;;;;;;3582964;40;22651;-61
2021/07/17 10:31:07;;;;;;;15.93;8.27;;;;;;;;;;3581630;40;20025;-61
2021/07/17 10:33:33;;;;;;;11.52;8.15;;;;;;;;;;3582721;40;20021;-61
2021/07/17 10:36:10;;;;;;;12.25;9.27;;;;;;;;;;3581504;40;20033;-61
2021/07/17 10:38:43;;;;;;;13.70;9.13;;;;;;;;;;3581100;40;20134;-61
2021/07/17 10:41:12;;;;;;;11.52;8.27;;;;;;;;;;3576751;40;20033;-61
2021/07/17 10:43:38;;;;;;;9.90;8.57;;;;;;;;;;3581618;40;20036;-60
2021/07/17 10:46:03;;;;;;;15.00;8.95;;;;;;;;;;3583802;40;20073;-61
2021/07/17 10:48:32;;;;;;;12.10;8.57;;;;;;;;;;3581760;40;20126;-61
2021/07/17 10:51:00;;;;;;;12.98;8.65;;;;;;;;;;3581515;40;20084;-59
2021/07/17 10:53:48;;;;;;;12.40;9.15;;;;;;;;;;3580231;40;20046;-59
2021/07/17 10:56:29;;;;;;;11.35;9.00;;;;;;;;;;3583147;40;20279;-59
2021/07/17 10:58:55;;;;;;;13.40;9.18;;;;;;;;;;3585039;40;20029;-59
2021/07/17 11:01:21;;;;;;;12.50;9.77;;;;;;;;;;3580973;40;20287;-59
2021/07/17 11:03:47;;;;;;;15.70;10.05;;;;;;;;;;3585858;40;20184;-59
2021/07/17 11:06:27;;;;;;;12.07;9.65;;;;;;;;;;3584138;40;20040;-59
2021/07/17 11:08:57;;;;;;;17.15;9.10;;;;;;;;;;3583593;40;20938;-59
2021/07/17 11:11:28;;;;;;;;;;;;;;;;;;3583870;40;20045;-59
2021/07/17 11:14:17;;;;;;;15.27;9.18;;;;;;;;;;3580067;40;19928;-59
2021/07/17 11:16:48;;;;;;;14.00;8.48;;;;;;;;;;3582164;40;20059;-60
2021/07/17 11:19:13;;;;;;;15.13;8.95;;;;;;;;;;3583827;40;20052;-60
2021/07/17 11:21:39;;;;;;;15.02;8.27;;;;;;;;;;3582952;40;20037;-60
2021/07/17 11:24:09;;;;;;;13.50;9.05;;;;;;;;;;3583134;40;20056;-60
2021/07/17 11:26:35;;;;;;;15.82;8.85;;;;;;;;;;3582618;40;20044;-60
2021/07/17 11:29:06;;;;;;;13.02;9.00;;;;;;;;;;3582801;40;20144;-60
2021/07/17 11:31:31;;;;;;;11.20;8.63;;;;;;;;;;3584540;40;20061;-60
2021/07/17 11:34:09;;;;;;;11.13;8.48;;;;;;;;;;3584378;40;20044;-60
2021/07/17 11:36:35;;;;;;;9.88;8.32;;;;;;;;;;3581802;40;20860;-61
2021/07/17 11:39:04;;;;;;;12.75;8.25;;;;;;;;;;3582953;40;20039;-59
2021/07/17 11:41:29;;;;;;;13.07;8.73;;;;;;;;;;3576722;40;20033;-59
2021/07/17 11:43:54;;;;;;;12.43;8.25;;;;;;;;;;3585392;40;20134;-59
2021/07/17 11:46:20;;;;;;;11.70;7.78;;;;;;;;;;3583999;40;20085;-59
2021/07/17 11:49:04;;;;;;;11.75;7.97;;;;;;;;;;3583539;40;20036;-60
2021/07/17 11:51:32;;;;;;;14.85;7.68;;;;;;;;;;3583702;40;20080;-59
2021/07/17 11:53:58;;;;;;;10.05;8.27;;;;;;;;;;3583123;40;20040;-59
2021/07/17 11:56:23;;;;;;;13.85;8.45;;;;;;;;;;3583829;40;20032;-59
2021/07/17 11:58:49;;;;;;;13.27;7.68;;;;;;;;;;3581876;40;20056;-60
2021/07/17 12:01:16;;;;;;;17.30;8.48;;;;;;;;;;3582116;40;20037;-60
2021/07/17 12:03:42;;;;;;;9.55;7.82;;;;;;;;;;3584666;40;20073;-60
2021/07/17 12:06:07;;;;;;;11.07;8.38;;;;;;;;;;3583933;40;20069;-60
2021/07/17 12:08:33;;;;;;;10.50;7.45;;;;;;;;;;3582239;40;20319;-60
2021/07/17 12:10:58;;;;;;;15.60;8.82;;;;;;;;;;3582545;40;20029;-60
2021/07/17 12:13:25;;;;;;;9.55;8.00;;;;;;;;;;3584387;40;20372;-60
2021/07/17 12:15:51;;;;;;;8.82;7.32;;;;;;;;;;3583152;40;20029;-60
2021/07/17 12:18:18;;;;;;;10.00;8.52;;;;;;;;;;3583091;40;20044;-60
2021/07/17 12:20:47;;;;;;;17.35;9.52;;;;;;;;;;3583863;40;20054;-60
2021/07/17 12:23:14;;;;;;;12.23;8.50;;;;;;;;;;3581393;40;20263;-60
2021/07/17 12:25:45;;;;;;;10.60;8.10;;;;;;;;;;3582940;40;20061;-59
2021/07/17 12:28:25;;;;;;;10.90;7.95;;;;;;;;;;3583311;40;20124;-60
2021/07/17 12:31:01;;;;;;;10.73;7.72;;;;;;;;;;3582633;40;20257;-60
2021/07/17 12:33:39;;;;;;;12.23;8.27;;;;;;;;;;3582645;40;20080;-60
2021/07/17 12:36:22;;;;;;;9.20;7.25;;;;;;;;;;3583109;40;20129;-60
2021/07/17 12:38:52;;;;;;;11.27;7.88;;;;;;;;;;3584219;40;20343;-60
2021/07/17 12:41:24;;;;;;;11.70;8.73;;;;;;;;;;3582060;40;20049;-60
2021/07/17 12:43:54;;;;;;;14.63;8.60;;;;;;;;;;3580740;40;20080;-60
2021/07/17 12:46:19;;;;;;;12.43;8.63;;;;;;;;;;3582734;40;20076;-60
2021/07/17 12:48:54;;;;;;;9.43;7.82;;;;;;;;;;3584012;40;20086;-60
2021/07/17 12:51:31;;;;;;;12.48;8.48;;;;;;;;;;3583630;40;20338;-60
2021/07/17 12:54:00;;;;;;;11.35;8.95;;;;;;;;;;3580995;40;20069;-60
2021/07/17 12:56:32;;;;;;;13.32;8.57;;;;;;;;;;3581050;40;20037;-60
2021/07/17 12:59:00;;;;;;;12.77;9.00;;;;;;;;;;3583748;40;20044;-59
2021/07/17 13:01:27;;;;;;;10.15;9.13;;;;;;;;;;3583706;40;20302;-60
2021/07/17 13:03:52;;;;;;;11.82;8.90;;;;;;;;;;3582605;40;20033;-60
2021/07/17 13:06:18;;;;;;;11.27;8.45;;;;;;;;;;3582694;40;20055;-60
2021/07/17 13:09:00;;;;;;;14.50;8.60;;;;;;;;;;3582948;40;20044;-60
2021/07/17 13:11:26;;;;;;;16.75;8.98;;;;;;;;;;3583819;40;20036;-60
2021/07/17 13:13:55;;;;;;;11.50;8.27;;;;;;;;;;3580328;40;20044;-60
2021/07/17 13:16:28;;;;;;;13.13;8.90;;;;;;;;;;3580074;40;20502;-60
2021/07/17 13:18:54;;;;;;;10.88;8.85;;;;;;;;;;3582208;40;20283;-60
2021/07/17 13:21:32;;;;;;;11.60;8.82;;;;;;;;;;3582179;40;20114;-60
2021/07/17 13:23:59;;;;;;;14.85;8.80;;;;;;;;;;3582660;40;20039;-60
2021/07/17 13:26:28;;;;;;;11.25;8.40;;;;;;;;;;3581945;40;20069;-60
2021/07/17 13:28:55;;;;;;;11.30;9.05;;;;;;;;;;3582396;40;20388;-60
2021/07/17 13:31:28;;;;;;;11.20;8.50;;;;;;;;;;3583404;40;20295;-60
2021/07/17 13:34:12;;;;;;;11.20;7.20;;;;;;;;;;3582146;40;20063;-60
2021/07/17 13:36:51;;;;;;;12.73;7.78;;;;;;;;;;3582173;40;20037;-60
2021/07/17 13:39:16;;;;;;;9.90;7.82;;;;;;;;;;3582991;40;20059;-60
2021/07/17 13:41:42;;;;;;;10.10;7.90;;;;;;;;;;3582306;40;20384;-60
2021/07/17 13:44:12;;;;;;;11.48;7.57;;;;;;;;;;3582343;40;20048;-60
2021/07/17 13:46:39;;;;;;;10.55;7.80;;;;;;;;;;3580987;40;20158;-61
2021/07/17 13:49:17;;;;;;;9.13;7.15;;;;;;;;;;3583302;40;20340;-60
2021/07/17 13:51:44;;;;;;;11.82;8.63;;;;;;;;;;3584337;40;20055;-60
2021/07/17 13:54:10;;;;;;;10.20;7.70;;;;;;;;;;3584417;40;20072;-60
2021/07/17 13:56:37;;;;;;;10.05;7.47;;;;;;;;;;3582827;40;20029;-60
2021/07/17 13:59:05;;;;;;;9.57;8.15;;;;;;;;;;3580919;40;20085;-60
2021/07/17 14:01:33;;;;;;;9.70;7.78;;;;;;;;;;3581422;40;20029;-60
2021/07/17 14:03:59;;;;;;;8.80;6.78;;;;;;;;;;3581148;40;20033;-60
2021/07/17 14:06:28;;;;;;;10.48;7.80;;;;;;;;;;3581960;40;20024;-62
2021/07/17 14:08:55;;;;;;;10.57;7.15;;;;;;;;;;3581529;40;20060;-60
2021/07/17 14:11:20;;;;;;;9.85;7.45;;;;;;;;;;3581549;40;20141;-60
2021/07/17 14:13:46;;;;;;;11.23;8.65;;;;;;;;;;3581474;40;20037;-60
2021/07/17 14:16:12;;;;;;;10.90;8.75;;;;;;;;;;3582567;40;20053;-60
2021/07/17 14:18:39;;;;;;;9.23;6.65;;;;;;;;;;3581564;40;20080;-60
2021/07/17 14:21:05;;;;;;;10.15;7.68;;;;;;;;;;3580302;40;20122;-60
2021/07/17 14:23:31;;;;;;;10.70;6.97;;;;;;;;;;3581479;40;20048;-60
2021/07/17 14:25:58;;;;;;;9.45;7.55;;;;;;;;;;3582852;40;20058;-60
2021/07/17 14:28:23;;;;;;;9.55;7.10;;;;;;;;;;3581534;40;20041;-60